KJZI Airport (Charleston Executive) Information

FAA: JZI - ICAO: KJZI

KJZI Airport Location

State South Carolina
County Charleston
City Charleston
KJZI Airport is 6 miles southwest of Charleston, SC.
Latitude 32-42-03.7000N
Longitude 080-00-11.7000W
Elevation 18ft

KJZI Airport METARs

METAR KJZI 060755Z AUTO 21005KT 10SM CLR 27/24 A3000 RMK AO2
Altimeter 30.00"
Temperature 27.0°C (80.6°F)
Wind 210° at 5KT
Clouds Skies are clear.
Visibility 10.0mi
Time observed: 2022-07-06T07:55:00Z

KJZI Airport Details

Status Operational
Activation April 1943
Ownership Public
Usage Public
Chart CHARLOTTE
ATC on-site No
Beacon schedule sunset-sunrise
Beacon color clear green

KJZI Airport Contacts

Owner CHARLESTON CO AVN AUTHORITY
Owner address 5500 INTL BLVD, # 101, CHARLESTON, SC 29418-6911
Owner phone 843-767-7000
Manager RODERICK BUSBY
Manager address 60 BUSBY RD, AIKEN, SC 29801
Manager phone 803-640-6867

KJZI Airport (Charleston Executive) Radio Frequencies

KJZI (Airport) Radio Frequencies

UNICOM 122.8
Common traffic advisory frequency (CTAF) 122.8